createdAt,value
2022-10-06T00:00:48.518Z,97101.97
2022-10-06T00:03:18.284Z,97144.69
2022-10-06T00:05:46.255Z,96999.69
2022-10-06T00:08:14.260Z,97144.47
2022-10-06T00:10:42.222Z,97111.69
2022-10-06T00:13:10.224Z,97093.50
2022-10-06T00:15:38.537Z,97110.69
2022-10-06T00:18:06.556Z,97078.78
2022-10-06T00:20:35.995Z,97150.47
2022-10-06T00:23:03.995Z,97152.47
2022-10-06T00:25:32.512Z,97157.72
2022-10-06T00:28:00.496Z,97163.56
2022-10-06T00:30:31.208Z,97159.25
2022-10-06T00:33:00.892Z,97115.22
2022-10-06T00:35:32.091Z,97169.66
2022-10-06T00:38:01.560Z,97155.13
2022-10-06T00:40:30.816Z,97165.63
2022-10-06T00:43:00.758Z,97166.69
2022-10-06T00:45:32.703Z,97154.13
2022-10-06T00:48:05.746Z,97175.19
2022-10-06T00:50:34.583Z,97167.06
2022-10-06T00:53:04.215Z,97169.34
2022-10-06T00:55:32.207Z,97170.78
2022-10-06T00:58:00.758Z,97166.25
2022-10-06T01:00:29.329Z,97174.94
2022-10-06T01:03:00.562Z,97174.81
2022-10-06T01:05:30.826Z,97172.94
2022-10-06T01:07:59.067Z,97181.00
2022-10-06T01:10:28.547Z,97178.47
2022-10-06T01:12:57.196Z,97137.50
2022-10-06T01:15:26.111Z,97182.38
2022-10-06T01:17:56.707Z,97116.19
2022-10-06T01:20:24.954Z,97183.31
2022-10-06T01:22:57.415Z,97186.50
2022-10-06T01:25:25.409Z,97192.63
2022-10-06T01:27:55.880Z,97118.22
2022-10-06T01:30:28.773Z,97150.53
2022-10-06T01:32:57.064Z,97197.22
2022-10-06T01:35:25.411Z,97136.72
2022-10-06T01:37:58.791Z,97172.97
2022-10-06T01:40:29.046Z,97187.94
2022-10-06T01:42:57.162Z,97192.31
2022-10-06T01:45:25.179Z,97114.88
2022-10-06T01:47:53.105Z,97201.44
2022-10-06T01:50:21.064Z,97186.19
2022-10-06T01:52:49.165Z,97128.88
2022-10-06T01:55:19.435Z,97198.91
2022-10-06T01:57:47.398Z,97149.97
2022-10-06T02:00:15.701Z,97203.00
2022-10-06T02:02:44.197Z,97196.00
2022-10-06T02:05:12.587Z,97194.34
2022-10-06T02:07:40.527Z,97162.47
2022-10-06T02:10:09.088Z,97152.84
2022-10-06T02:12:39.249Z,97190.84
2022-10-06T02:15:10.639Z,97162.06
2022-10-06T02:17:38.979Z,97140.69
2022-10-06T02:20:07.550Z,97198.47
2022-10-06T02:22:38.913Z,97200.59
2022-10-06T02:25:07.285Z,97203.94
2022-10-06T02:27:35.238Z,97202.88
2022-10-06T02:30:05.675Z,97200.56
2022-10-06T02:32:35.455Z,97179.09
2022-10-06T02:35:04.732Z,97186.78
2022-10-06T02:37:32.661Z,97189.53
2022-10-06T02:40:01.015Z,97184.56
2022-10-06T02:42:29.264Z,97146.09
2022-10-06T02:44:59.171Z,97194.94
2022-10-06T02:47:29.342Z,97194.22
2022-10-06T02:49:57.266Z,97202.94
2022-10-06T02:52:25.190Z,97207.22
2022-10-06T02:54:53.081Z,97201.44
2022-10-06T02:57:21.412Z,97207.53
2022-10-06T02:59:49.568Z,97211.94
2022-10-06T03:02:17.727Z,97218.63
2022-10-06T03:04:47.170Z,97189.69
2022-10-06T03:07:15.258Z,97134.13
2022-10-06T03:09:43.431Z,97207.75
2022-10-06T03:12:11.306Z,97218.63
2022-10-06T03:14:39.672Z,97220.13
2022-10-06T03:17:09.980Z,97227.91
2022-10-06T03:19:38.542Z,97220.06
2022-10-06T03:22:07.971Z,97208.28
2022-10-06T03:24:35.994Z,97141.25
2022-10-06T03:27:03.891Z,97225.75
2022-10-06T03:29:31.937Z,97230.28
2022-10-06T03:31:59.971Z,97197.28
2022-10-06T03:34:27.927Z,97229.00
2022-10-06T03:36:56.089Z,97235.75
2022-10-06T03:39:25.409Z,97233.63
2022-10-06T03:41:53.362Z,97239.44
2022-10-06T03:44:22.012Z,97234.09
2022-10-06T03:46:50.037Z,97245.22
2022-10-06T03:49:18.100Z,97246.53
2022-10-06T03:51:46.077Z,97242.97
2022-10-06T03:54:15.063Z,97157.72
2022-10-06T03:56:44.485Z,97122.97
2022-10-06T03:59:13.921Z,97154.75
2022-10-06T04:01:43.744Z,97252.38
2022-10-06T04:04:12.081Z,97256.50
2022-10-06T04:06:41.711Z,97214.28
2022-10-06T04:09:15.002Z,97257.03
2022-10-06T04:11:45.882Z,97275.06
2022-10-06T04:14:15.418Z,97271.19
2022-10-06T04:16:45.368Z,97273.25
2022-10-06T04:19:14.746Z,97269.34
2022-10-06T04:21:44.304Z,97284.22
2022-10-06T04:24:12.760Z,97264.78
2022-10-06T04:26:42.417Z,97276.75
2022-10-06T04:29:11.773Z,97295.16
2022-10-06T04:31:41.123Z,97295.16
2022-10-06T04:34:10.208Z,97300.25
2022-10-06T04:36:40.885Z,97287.84
2022-10-06T04:39:10.740Z,97305.19
2022-10-06T04:41:40.826Z,97307.88
2022-10-06T04:44:10.336Z,97313.59
2022-10-06T04:46:44.562Z,97301.31
2022-10-06T04:49:19.058Z,97323.25
2022-10-06T04:51:48.627Z,97327.66
2022-10-06T04:54:16.643Z,97293.25
2022-10-06T04:56:44.671Z,97327.19
2022-10-06T04:59:12.629Z,97331.00
2022-10-06T05:01:42.054Z,97333.94
2022-10-06T05:04:09.987Z,97279.28
2022-10-06T05:06:39.912Z,97329.38
2022-10-06T05:09:09.193Z,97315.38
2022-10-06T05:11:37.481Z,97337.81
2022-10-06T05:14:09.183Z,97312.75
2022-10-06T05:16:38.746Z,97336.56
2022-10-06T05:19:08.386Z,97313.28
2022-10-06T05:21:36.638Z,97347.75
2022-10-06T05:24:04.959Z,97326.38
2022-10-06T05:26:35.865Z,97358.66
2022-10-06T05:29:04.241Z,97359.63
2022-10-06T05:31:33.476Z,97366.94
2022-10-06T05:34:01.669Z,97364.47
2022-10-06T05:36:34.155Z,97370.63
2022-10-06T05:39:02.965Z,97368.91
2022-10-06T05:41:32.076Z,97346.72
2022-10-06T05:44:00.037Z,97351.09
2022-10-06T05:46:29.420Z,97338.66
2022-10-06T05:48:58.427Z,97347.88
2022-10-06T05:51:30.957Z,97383.59
2022-10-06T05:54:01.211Z,97350.81
2022-10-06T05:56:30.004Z,97384.13
2022-10-06T05:58:58.964Z,97373.03
2022-10-06T06:01:28.642Z,97388.88
2022-10-06T06:03:59.485Z,97391.00
2022-10-06T06:06:28.946Z,97391.16
2022-10-06T06:08:58.701Z,97402.19
2022-10-06T06:11:29.275Z,97403.84
2022-10-06T06:13:58.082Z,97401.03
2022-10-06T06:16:25.339Z,97370.28
2022-10-06T06:18:53.420Z,97350.41
2022-10-06T06:21:21.805Z,97419.25
2022-10-06T06:23:50.257Z,97428.22
2022-10-06T06:26:19.477Z,97421.25
2022-10-06T06:28:50.873Z,97432.28
2022-10-06T06:31:21.481Z,97433.63
2022-10-06T06:33:51.794Z,97441.75
2022-10-06T06:36:21.347Z,97452.50
2022-10-06T06:38:52.006Z,97413.84
2022-10-06T06:41:21.617Z,97453.16
2022-10-06T06:44:06.899Z,97420.91
2022-10-06T06:49:06.489Z,97428.06
2022-10-06T06:51:35.841Z,97451.50
2022-10-06T06:54:04.178Z,97456.09
2022-10-06T06:56:34.952Z,97408.28
2022-10-06T06:59:08.955Z,97459.56
2022-10-06T07:01:37.137Z,97469.28
2022-10-06T07:04:06.118Z,97469.59
2022-10-06T07:06:34.778Z,97476.88
2022-10-06T07:09:03.669Z,97470.97
2022-10-06T07:11:33.096Z,97453.13
2022-10-06T07:14:04.458Z,97464.47
2022-10-06T07:16:52.179Z,97399.19
2022-10-06T07:19:53.038Z,97481.97
2022-10-06T07:22:39.822Z,97477.78
2022-10-06T07:25:12.687Z,97501.50
2022-10-06T07:27:43.150Z,97504.16
2022-10-06T07:30:12.849Z,97504.41
2022-10-06T07:32:42.312Z,97512.31
2022-10-06T07:35:10.913Z,97506.59
2022-10-06T07:37:38.910Z,97511.84
2022-10-06T07:40:08.314Z,97402.19
2022-10-06T07:42:48.394Z,97511.34
2022-10-06T07:45:35.777Z,97508.25
2022-10-06T07:48:06.750Z,97516.88
2022-10-06T07:50:34.789Z,97513.66
2022-10-06T07:53:04.997Z,97461.06
2022-10-06T07:55:33.081Z,97499.38
2022-10-06T07:58:01.073Z,97522.56
2022-10-06T08:00:29.175Z,97527.75
2022-10-06T08:02:57.237Z,97523.53
2022-10-06T08:05:26.686Z,97527.16
2022-10-06T08:07:55.011Z,97533.94
2022-10-06T08:10:23.171Z,97539.44
2022-10-06T08:12:51.231Z,97506.22
2022-10-06T08:15:20.618Z,97545.38
2022-10-06T08:17:48.682Z,97552.53
2022-10-06T08:20:18.480Z,97523.53
2022-10-06T08:22:49.146Z,97553.97
2022-10-06T08:25:17.214Z,97531.00
2022-10-06T08:27:46.490Z,97543.28
2022-10-06T08:30:16.309Z,97544.34
2022-10-06T08:32:44.284Z,97548.22
2022-10-06T08:35:12.746Z,97533.81
2022-10-06T08:37:40.789Z,97558.81
2022-10-06T08:40:13.656Z,97558.16
2022-10-06T08:42:43.642Z,97554.28
2022-10-06T08:45:15.880Z,97514.16
2022-10-06T08:47:52.255Z,97564.63
2022-10-06T08:50:22.289Z,97535.00
2022-10-06T08:52:56.234Z,97561.81
2022-10-06T08:55:35.641Z,97560.97
2022-10-06T08:58:14.693Z,97560.03
2022-10-06T09:00:42.666Z,97556.75
2022-10-06T09:03:19.797Z,97551.94
2022-10-06T09:05:48.275Z,97570.34
2022-10-06T09:08:25.616Z,97576.34
2022-10-06T09:11:06.615Z,97576.47
2022-10-06T09:13:38.467Z,97569.72
2022-10-06T09:16:08.492Z,97572.75
2022-10-06T09:19:09.443Z,97575.19
2022-10-06T09:21:34.981Z,97576.47
2022-10-06T09:24:07.731Z,97562.47
2022-10-06T09:26:40.272Z,97567.94
2022-10-06T09:29:08.360Z,97565.94
2022-10-06T09:31:38.858Z,97542.81
2022-10-06T09:34:15.605Z,97533.91
2022-10-06T09:37:01.652Z,97571.97
2022-10-06T09:39:33.446Z,97575.13
2022-10-06T09:42:08.017Z,97569.09
2022-10-06T09:44:55.264Z,97576.19
2022-10-06T09:47:36.752Z,97579.66
2022-10-06T09:50:17.698Z,97579.97
2022-10-06T09:53:03.874Z,97588.72
2022-10-06T09:55:33.896Z,97582.91
2022-10-06T09:58:03.732Z,97586.41
2022-10-06T10:00:33.309Z,97576.53
2022-10-06T10:03:03.724Z,97580.44
2022-10-06T10:05:33.985Z,97589.03
2022-10-06T10:08:02.974Z,97570.38
2022-10-06T10:10:31.107Z,97589.53
2022-10-06T10:13:00.981Z,97595.03
2022-10-06T10:15:33.177Z,97572.13
2022-10-06T10:18:03.202Z,97588.06
2022-10-06T10:20:37.549Z,97587.94
2022-10-06T10:23:11.036Z,97556.13
2022-10-06T10:26:08.034Z,97583.72
2022-10-06T10:28:58.197Z,97593.16
2022-10-06T10:31:33.378Z,97589.84
2022-10-06T10:34:23.982Z,97525.75
2022-10-06T10:36:55.565Z,97582.75
2022-10-06T10:39:31.560Z,97594.25
2022-10-06T10:42:03.033Z,97605.38
2022-10-06T10:44:35.076Z,97592.75
2022-10-06T10:47:12.947Z,97593.81
2022-10-06T10:49:42.408Z,97570.38
2022-10-06T10:52:14.648Z,97578.47
2022-10-06T10:54:47.444Z,97583.38
2022-10-06T10:57:18.241Z,97591.16
2022-10-06T10:59:54.903Z,97589.00
2022-10-06T11:02:24.638Z,97588.03
2022-10-06T11:04:55.934Z,97567.59
2022-10-06T11:07:26.550Z,97587.38
2022-10-06T11:10:00.854Z,97596.06
2022-10-06T11:12:40.622Z,97574.03
2022-10-06T11:15:17.080Z,97588.84
2022-10-06T11:17:49.400Z,97585.97
2022-10-06T11:20:33.416Z,97592.06
2022-10-06T11:23:09.761Z,97583.88
2022-10-06T11:25:44.148Z,97543.22
2022-10-06T11:28:17.319Z,97580.22
2022-10-06T11:30:56.128Z,97575.66
2022-10-06T11:33:29.314Z,97582.91
2022-10-06T11:35:57.613Z,97586.84
2022-10-06T11:38:28.591Z,97577.66
2022-10-06T11:41:10.239Z,97568.56
2022-10-06T11:43:44.250Z,97586.91
2022-10-06T11:46:23.055Z,97560.31
2022-10-06T11:48:53.167Z,97574.50
2022-10-06T11:51:31.653Z,97575.41
2022-10-06T11:53:59.861Z,97545.31
2022-10-06T11:56:46.657Z,97545.84
2022-10-06T11:59:31.602Z,97572.16
2022-10-06T12:02:00.962Z,97568.78
2022-10-06T12:04:30.772Z,97510.00
2022-10-06T12:07:03.457Z,97550.19
2022-10-06T12:09:44.657Z,97562.97
2022-10-06T12:12:41.878Z,97569.78
2022-10-06T12:18:36.879Z,97535.84
2022-10-06T12:21:20.006Z,97551.38
2022-10-06T12:23:55.845Z,97557.34
2022-10-06T12:26:30.481Z,97546.28
2022-10-06T12:29:02.433Z,97555.31
2022-10-06T12:31:47.399Z,97560.25
2022-10-06T12:34:52.693Z,97565.16
2022-10-06T12:37:32.508Z,97557.75
2022-10-06T12:40:39.548Z,97561.78
2022-10-06T12:43:50.457Z,97551.56
2022-10-06T12:46:25.266Z,97540.03
2022-10-06T12:49:12.025Z,97560.00
2022-10-06T12:51:41.496Z,97556.03
2022-10-06T12:54:20.485Z,97557.97
2022-10-06T12:57:16.110Z,97556.38
2022-10-06T12:59:44.123Z,97553.53
2022-10-06T13:02:18.989Z,97554.44
2022-10-06T13:04:50.790Z,97555.59
2022-10-06T13:07:22.054Z,97515.78
2022-10-06T13:09:53.454Z,97560.66
2022-10-06T13:12:27.287Z,97562.56
2022-10-06T13:15:15.285Z,97548.09
2022-10-06T13:17:45.186Z,97553.97
2022-10-06T13:20:31.194Z,97542.28
2022-10-06T13:22:59.939Z,97546.53
2022-10-06T13:25:35.595Z,97549.00
2022-10-06T13:28:03.591Z,97525.91
2022-10-06T13:30:37.801Z,97537.72
2022-10-06T13:33:08.628Z,97542.72
2022-10-06T13:35:36.548Z,97556.59
2022-10-06T13:38:06.318Z,97547.22
2022-10-06T13:40:45.041Z,97539.75
2022-10-06T13:43:17.071Z,97551.00
2022-10-06T13:45:46.143Z,97549.78
2022-10-06T13:48:16.661Z,97542.50
2022-10-06T13:50:49.022Z,97544.94
2022-10-06T13:53:25.760Z,97539.13
2022-10-06T13:55:55.131Z,97536.63
2022-10-06T13:58:27.718Z,97538.00
2022-10-06T14:00:57.734Z,97536.75
2022-10-06T14:03:28.770Z,97544.91
2022-10-06T14:06:09.686Z,97543.03
2022-10-06T14:08:37.996Z,97542.38
2022-10-06T14:11:08.790Z,97541.16
2022-10-06T14:13:42.805Z,97535.94
2022-10-06T14:16:19.371Z,97545.69
2022-10-06T14:21:34.022Z,97551.16
2022-10-06T14:24:06.141Z,97542.63
2022-10-06T14:26:39.834Z,97543.19
2022-10-06T14:29:07.725Z,97548.66
2022-10-06T14:31:35.713Z,97544.97
2022-10-06T14:34:05.388Z,97557.16
2022-10-06T14:36:34.527Z,97550.19
2022-10-06T14:39:05.446Z,97552.38
2022-10-06T14:41:33.362Z,97557.06
2022-10-06T14:44:05.993Z,97558.16
2022-10-06T14:46:34.836Z,97553.75
2022-10-06T14:49:05.702Z,97554.84
2022-10-06T14:51:36.542Z,97551.94
2022-10-06T14:54:06.104Z,97556.19
2022-10-06T14:56:35.613Z,97554.28
2022-10-06T14:59:06.436Z,97552.06
2022-10-06T15:01:35.999Z,97532.53
2022-10-06T15:04:05.444Z,97542.50
2022-10-06T15:06:50.912Z,97558.25
2022-10-06T15:09:18.830Z,97554.91
2022-10-06T15:11:46.732Z,97558.47
2022-10-06T15:14:16.163Z,97531.19
2022-10-06T15:16:44.779Z,97552.06
2022-10-06T15:19:13.122Z,97554.41
2022-10-06T15:21:41.838Z,97511.41
2022-10-06T15:24:13.660Z,97558.22
2022-10-06T15:26:59.386Z,97515.50
2022-10-06T15:29:28.897Z,97559.53
2022-10-06T15:31:58.642Z,97555.34
2022-10-06T15:34:28.049Z,97563.19
2022-10-06T15:36:57.813Z,97563.25
2022-10-06T15:39:26.930Z,97562.56
2022-10-06T15:41:55.056Z,97565.16
2022-10-06T15:44:23.565Z,97559.25
2022-10-06T15:46:53.839Z,97570.91
2022-10-06T15:49:23.049Z,97564.09
2022-10-06T15:51:53.711Z,97575.97
2022-10-06T15:54:23.684Z,97570.44
2022-10-06T15:56:52.821Z,97577.31
2022-10-06T15:59:24.406Z,97578.06
2022-10-06T16:01:56.790Z,97580.31
2022-10-06T16:04:32.744Z,97581.16
2022-10-06T16:07:01.024Z,97583.94
2022-10-06T16:09:30.789Z,97584.22
2022-10-06T16:11:59.709Z,97587.25
2022-10-06T16:14:27.902Z,97524.53
2022-10-06T16:16:59.839Z,97587.91
2022-10-06T16:19:28.865Z,97593.50
2022-10-06T16:21:59.146Z,97588.19
2022-10-06T16:24:27.859Z,97591.69
2022-10-06T16:26:57.267Z,97595.06
2022-10-06T16:29:25.495Z,97564.19
2022-10-06T16:31:53.683Z,97582.28
2022-10-06T16:34:25.621Z,97604.69
2022-10-06T16:36:53.583Z,97612.13
2022-10-06T16:39:22.952Z,97606.59
2022-10-06T16:41:51.549Z,97603.91
2022-10-06T16:44:19.460Z,97601.16
2022-10-06T16:46:47.597Z,97599.28
2022-10-06T16:49:15.580Z,97599.78
2022-10-06T16:51:46.790Z,97606.66
2022-10-06T16:54:17.145Z,97596.63
2022-10-06T16:56:46.410Z,97609.88
2022-10-06T16:59:15.557Z,97603.84
2022-10-06T17:01:44.314Z,97600.09
2022-10-06T17:04:14.127Z,97606.38
2022-10-06T17:06:45.308Z,97605.28
2022-10-06T17:09:15.271Z,97603.81
2022-10-06T17:11:44.621Z,97601.91
2022-10-06T17:14:12.661Z,97616.25
2022-10-06T17:16:42.172Z,97614.50
2022-10-06T17:19:11.800Z,97614.69
2022-10-06T17:21:50.485Z,97612.38
2022-10-06T17:24:22.590Z,97621.56
2022-10-06T17:26:51.325Z,97615.59
2022-10-06T17:29:21.442Z,97616.13
2022-10-06T17:31:51.101Z,97613.69
2022-10-06T17:34:21.863Z,97608.06
2022-10-06T17:36:52.397Z,97602.38
2022-10-06T17:39:22.794Z,97610.81
2022-10-06T17:41:52.557Z,97617.22
2022-10-06T17:44:23.794Z,97619.44
2022-10-06T17:46:53.539Z,97618.28
2022-10-06T17:49:23.893Z,97620.28
2022-10-06T17:51:53.453Z,97616.00
2022-10-06T17:54:25.001Z,97617.47
2022-10-06T17:56:54.172Z,97609.56
2022-10-06T17:59:23.320Z,97621.28
2022-10-06T18:01:52.275Z,97621.28
2022-10-06T18:04:20.760Z,97621.75
2022-10-06T18:06:49.362Z,97623.81
2022-10-06T18:09:17.488Z,97621.69
2022-10-06T18:11:48.328Z,97619.94
2022-10-06T18:14:17.936Z,97624.31
2022-10-06T18:16:52.136Z,97610.53
2022-10-06T18:19:26.507Z,97615.81
2022-10-06T18:21:56.649Z,97609.97
2022-10-06T18:24:27.361Z,97625.28
2022-10-06T18:26:58.015Z,97624.66
2022-10-06T18:29:30.230Z,97622.63
2022-10-06T18:32:15.071Z,97618.41
2022-10-06T18:36:11.695Z,97614.50
2022-10-06T18:37:34.898Z,97621.03
2022-10-06T18:40:06.236Z,97624.50
2022-10-06T18:42:35.889Z,97631.75
2022-10-06T18:45:21.844Z,97636.47
2022-10-06T18:48:07.213Z,97626.31
2022-10-06T18:50:35.335Z,97628.34
2022-10-06T18:53:04.439Z,97628.56
2022-10-06T18:55:32.667Z,97632.97
2022-10-06T18:58:02.067Z,97620.00
2022-10-06T19:00:31.211Z,97628.09
2022-10-06T19:02:59.117Z,97626.09
2022-10-06T19:05:27.027Z,97633.22
2022-10-06T19:07:55.771Z,97628.16
2022-10-06T19:10:23.685Z,97630.41
2022-10-06T19:12:51.600Z,97632.28
2022-10-06T19:15:21.548Z,97633.72
2022-10-06T19:17:49.913Z,97628.84
2022-10-06T19:20:18.289Z,97624.75
2022-10-06T19:22:47.552Z,97624.16
2022-10-06T19:25:18.830Z,97630.88
2022-10-06T19:27:47.025Z,97637.81
2022-10-06T19:30:15.853Z,97638.06
2022-10-06T19:32:45.136Z,97643.19
2022-10-06T19:35:13.268Z,97633.28
2022-10-06T19:37:41.588Z,97643.97
2022-10-06T19:40:11.419Z,97646.78
2022-10-06T19:42:47.705Z,97640.75
2022-10-06T19:45:16.501Z,97638.41
2022-10-06T19:47:47.065Z,97645.56
2022-10-06T19:50:16.285Z,97634.38
2022-10-06T19:52:44.182Z,97646.97
2022-10-06T19:55:12.094Z,97651.25
2022-10-06T19:57:40.093Z,97646.00
2022-10-06T20:00:10.241Z,97651.72
2022-10-06T20:02:42.115Z,97644.94
2022-10-06T20:05:13.313Z,97648.63
2022-10-06T20:07:42.357Z,97651.09
2022-10-06T20:10:11.788Z,97651.09
2022-10-06T20:12:42.195Z,97651.13
2022-10-06T20:15:11.248Z,97652.94
2022-10-06T20:17:41.759Z,97658.75
2022-10-06T20:20:10.489Z,97663.56
2022-10-06T20:22:39.887Z,97663.69
2022-10-06T20:25:08.082Z,97653.38
2022-10-06T20:27:36.012Z,97627.25
2022-10-06T20:30:04.029Z,97658.63
2022-10-06T20:32:32.001Z,97657.28
2022-10-06T20:35:01.944Z,97652.81
2022-10-06T20:37:29.921Z,97638.81
2022-10-06T20:40:16.660Z,97640.63
2022-10-06T20:42:49.185Z,97642.97
2022-10-06T20:45:17.399Z,97641.22
2022-10-06T20:47:47.642Z,97644.53
2022-10-06T20:50:15.662Z,97646.47
2022-10-06T20:52:43.666Z,97638.19
2022-10-06T20:55:14.594Z,97639.84
2022-10-06T20:57:42.564Z,97633.09
2022-10-06T21:00:11.789Z,97631.13
2022-10-06T21:02:40.371Z,97635.41
2022-10-06T21:05:10.011Z,97638.06
2022-10-06T21:07:37.937Z,97635.50
2022-10-06T21:10:06.624Z,97630.44
2022-10-06T21:12:35.940Z,97624.72
2022-10-06T21:15:03.897Z,97628.84
2022-10-06T21:17:31.820Z,97628.38
2022-10-06T21:19:59.792Z,97623.69
2022-10-06T21:22:31.151Z,97579.03
2022-10-06T21:24:59.107Z,97572.66
2022-10-06T21:27:27.011Z,97627.53
2022-10-06T21:29:56.276Z,97609.84
2022-10-06T21:32:24.267Z,97554.03
2022-10-06T21:34:56.495Z,97572.53
2022-10-06T21:37:24.471Z,97603.50
2022-10-06T21:39:52.372Z,97609.00
2022-10-06T21:42:20.333Z,97607.50
2022-10-06T21:44:48.234Z,97572.94
2022-10-06T21:47:17.623Z,97610.41
2022-10-06T21:49:45.532Z,97605.91
2022-10-06T21:52:13.484Z,97601.69
2022-10-06T21:54:41.365Z,97598.78
2022-10-06T21:57:09.304Z,97590.56
2022-10-06T21:59:37.205Z,97587.25
2022-10-06T22:02:05.184Z,97593.75
2022-10-06T22:04:34.476Z,97591.94
2022-10-06T22:07:02.413Z,97587.25
2022-10-06T22:09:30.365Z,97560.81
2022-10-06T22:11:58.359Z,97558.25
2022-10-06T22:14:26.438Z,97579.19
2022-10-06T22:16:54.347Z,97581.31
2022-10-06T22:19:22.420Z,97568.47
2022-10-06T22:21:51.841Z,97581.59
2022-10-06T22:24:21.358Z,97575.03
2022-10-06T22:26:51.776Z,97577.09
2022-10-06T22:29:20.605Z,97519.22
2022-10-06T22:31:49.418Z,97567.47
2022-10-06T22:34:18.893Z,97571.44
2022-10-06T22:36:46.932Z,97561.31
2022-10-06T22:39:16.575Z,97560.56
2022-10-06T22:41:45.317Z,97549.38
2022-10-06T22:44:13.267Z,97562.25
2022-10-06T22:46:41.266Z,97559.53
2022-10-06T22:49:09.241Z,97558.75
2022-10-06T22:51:38.512Z,97539.97
2022-10-06T22:54:06.509Z,97543.34
2022-10-06T22:56:35.987Z,97532.59
2022-10-06T22:59:04.148Z,97545.56
2022-10-06T23:01:32.303Z,97513.94
2022-10-06T23:04:00.276Z,97547.78
2022-10-06T23:06:29.800Z,97542.28
2022-10-06T23:08:57.948Z,97532.28
2022-10-06T23:11:25.906Z,97503.81
2022-10-06T23:13:55.325Z,97530.50
2022-10-06T23:16:23.955Z,97489.72
2022-10-06T23:18:52.120Z,97523.31
2022-10-06T23:21:22.518Z,97530.00
2022-10-06T23:23:51.945Z,97516.19
2022-10-06T23:26:20.230Z,97514.53
2022-10-06T23:28:52.571Z,97525.66
2022-10-06T23:31:21.963Z,97527.97
2022-10-06T23:33:50.183Z,97459.84
2022-10-06T23:36:18.851Z,97527.00
2022-10-06T23:38:47.179Z,97516.19
2022-10-06T23:41:15.307Z,97524.25
2022-10-06T23:43:43.219Z,97522.81
2022-10-06T23:46:11.279Z,97525.38
2022-10-06T23:48:40.669Z,97510.53
2022-10-06T23:51:10.000Z,97530.66
2022-10-06T23:53:37.988Z,97516.19
2022-10-06T23:56:06.508Z,97514.72
2022-10-06T23:58:34.649Z,97521.16
